createdAt,value
2022-09-20T00:00:44.016Z,3.22
2022-09-20T00:03:12.146Z,4.70
2022-09-20T00:05:40.769Z,3.45
2022-09-20T00:08:12.438Z,4.25
2022-09-20T00:10:40.222Z,3.70
2022-09-20T00:13:08.622Z,6.15
2022-09-20T00:15:40.880Z,3.45
2022-09-20T00:18:08.334Z,3.67
2022-09-20T00:20:35.818Z,4.38
2022-09-20T00:23:03.211Z,3.97
2022-09-20T00:25:31.947Z,4.15
2022-09-20T00:27:59.459Z,3.17
2022-09-20T00:30:26.883Z,3.80
2022-09-20T00:32:54.267Z,3.20
2022-09-20T00:35:20.753Z,4.10
2022-09-20T00:37:48.161Z,4.40
2022-09-20T00:40:16.851Z,5.28
2022-09-20T00:42:45.629Z,4.63
2022-09-20T00:45:19.694Z,4.43
2022-09-20T00:47:49.171Z,4.07
2022-09-20T00:50:25.246Z,4.05
2022-09-20T00:52:55.585Z,3.78
2022-09-20T00:55:23.400Z,4.03
2022-09-20T00:57:52.312Z,4.07
2022-09-20T01:00:19.740Z,4.03
2022-09-20T01:02:48.929Z,5.40
2022-09-20T01:05:16.798Z,5.13
2022-09-20T01:10:11.683Z,3.90
2022-09-20T01:12:40.578Z,3.70
2022-09-20T01:15:10.664Z,4.95
2022-09-20T01:17:39.368Z,5.00
2022-09-20T01:20:09.988Z,4.32
2022-09-20T01:22:43.017Z,5.05
2022-09-20T01:25:15.381Z,4.72
2022-09-20T01:27:46.003Z,5.28
2022-09-20T01:30:16.036Z,4.88
2022-09-20T01:32:46.997Z,4.05
2022-09-20T01:35:15.931Z,4.57
2022-09-20T01:37:48.349Z,4.30
2022-09-20T01:40:19.963Z,5.32
2022-09-20T01:42:52.495Z,4.22
2022-09-20T01:45:22.246Z,5.03
2022-09-20T01:47:52.859Z,4.75
2022-09-20T01:50:26.470Z,6.13
2022-09-20T01:53:08.939Z,4.25
2022-09-20T01:55:52.511Z,4.50
2022-09-20T01:58:30.468Z,5.25
2022-09-20T02:01:05.410Z,5.20
2022-09-20T02:03:44.844Z,4.80
2022-09-20T02:06:20.630Z,5.85
2022-09-20T02:09:08.785Z,4.50
2022-09-20T02:11:43.206Z,5.35
2022-09-20T02:14:28.568Z,5.85
2022-09-20T02:16:58.418Z,4.88
2022-09-20T02:19:43.908Z,5.47
2022-09-20T02:22:16.668Z,6.35
2022-09-20T02:24:46.513Z,7.10
2022-09-20T02:27:18.000Z,5.72
2022-09-20T02:29:49.570Z,6.55
2022-09-20T02:32:29.096Z,6.07
2022-09-20T02:35:11.394Z,5.55
2022-09-20T02:37:50.670Z,7.38
2022-09-20T02:40:25.663Z,5.95
2022-09-20T02:42:57.997Z,5.85
2022-09-20T02:45:29.453Z,5.70
2022-09-20T02:48:02.924Z,5.75
2022-09-20T02:50:38.239Z,5.97
2022-09-20T02:53:17.135Z,5.55
2022-09-20T02:55:48.725Z,6.43
2022-09-20T02:58:26.169Z,5.88
2022-09-20T03:00:55.936Z,6.72
2022-09-20T03:03:32.138Z,6.20
2022-09-20T03:06:02.923Z,6.47
2022-09-20T03:08:34.312Z,5.60
2022-09-20T03:11:07.359Z,7.32
2022-09-20T03:13:44.206Z,6.90
2022-09-20T03:16:17.769Z,6.10
2022-09-20T03:18:50.287Z,6.88
2022-09-20T03:21:23.749Z,7.15
2022-09-20T03:23:55.340Z,7.68
2022-09-20T03:26:30.247Z,9.18
2022-09-20T03:29:00.756Z,9.23
2022-09-20T03:31:34.834Z,7.13
2022-09-20T03:34:10.269Z,9.80
2022-09-20T03:36:45.559Z,8.85
2022-09-20T03:39:21.264Z,8.40
2022-09-20T03:41:55.947Z,7.35
2022-09-20T03:44:47.373Z,9.98
2022-09-20T03:47:25.498Z,7.53
2022-09-20T03:50:08.905Z,7.95
2022-09-20T03:52:45.220Z,8.85
2022-09-20T03:55:32.533Z,7.95
2022-09-20T03:58:13.936Z,7.85
2022-09-20T04:00:49.529Z,8.05
2022-09-20T04:03:37.898Z,8.40
2022-09-20T04:06:22.833Z,7.25
2022-09-20T04:09:01.784Z,6.90
2022-09-20T04:11:32.905Z,7.15
2022-09-20T04:14:08.100Z,7.50
2022-09-20T04:19:11.482Z,10.35
2022-09-20T04:21:42.884Z,8.90
2022-09-20T04:24:12.800Z,8.95
2022-09-20T04:26:42.465Z,8.43
2022-09-20T04:29:17.227Z,9.88
2022-09-20T04:31:53.933Z,9.43
2022-09-20T04:34:23.811Z,9.33
2022-09-20T04:36:57.968Z,8.50
2022-09-20T04:39:33.419Z,10.30
2022-09-20T04:42:18.732Z,9.43
2022-09-20T04:45:10.358Z,8.05
2022-09-20T04:47:52.635Z,9.30
2022-09-20T04:50:38.641Z,9.00
2022-09-20T04:53:30.570Z,9.13
2022-09-20T04:56:01.820Z,9.25
2022-09-20T04:58:40.415Z,9.88
2022-09-20T05:01:30.376Z,9.57
2022-09-20T05:04:08.927Z,8.98
2022-09-20T05:06:54.018Z,9.57
2022-09-20T05:09:29.147Z,9.40
2022-09-20T05:12:11.481Z,10.27
2022-09-20T05:14:46.732Z,10.15
2022-09-20T05:17:22.943Z,11.75
2022-09-20T05:20:02.554Z,10.95
2022-09-20T05:22:40.422Z,10.75
2022-09-20T05:25:22.744Z,10.45
2022-09-20T05:27:55.072Z,10.40
2022-09-20T05:30:26.321Z,10.98
2022-09-20T05:33:01.891Z,10.35
2022-09-20T05:35:32.371Z,10.73
2022-09-20T05:38:03.280Z,11.05
2022-09-20T05:40:33.232Z,9.57
2022-09-20T05:43:11.150Z,10.68
2022-09-20T05:45:50.806Z,11.02
2022-09-20T05:48:23.612Z,10.90
2022-09-20T05:50:55.782Z,10.27
2022-09-20T05:53:37.585Z,10.20
2022-09-20T05:56:07.368Z,11.10
2022-09-20T05:58:43.403Z,10.13
2022-09-20T06:01:13.257Z,10.57
2022-09-20T06:03:42.177Z,10.63
2022-09-20T06:06:14.498Z,10.48
2022-09-20T06:08:51.432Z,10.18
2022-09-20T06:11:23.987Z,9.60
2022-09-20T06:14:01.983Z,9.57
2022-09-20T06:16:33.467Z,10.15
2022-09-20T06:19:05.970Z,10.05
2022-09-20T06:21:36.942Z,10.10
2022-09-20T06:24:05.941Z,8.98
2022-09-20T06:26:36.792Z,10.52
2022-09-20T06:29:07.141Z,10.80
2022-09-20T06:31:34.703Z,11.25
2022-09-20T06:34:05.284Z,10.85
2022-09-20T06:36:51.607Z,10.27
2022-09-20T06:39:43.603Z,8.45
2022-09-20T06:42:11.136Z,8.20
2022-09-20T06:44:41.155Z,10.10
2022-09-20T06:47:10.047Z,8.80
2022-09-20T06:49:37.599Z,9.18
2022-09-20T06:52:05.412Z,8.40
2022-09-20T06:54:33.037Z,8.27
2022-09-20T06:57:02.720Z,9.40
2022-09-20T06:59:30.116Z,8.15
2022-09-20T07:01:59.252Z,9.43
2022-09-20T07:04:26.717Z,9.15
2022-09-20T07:06:54.980Z,8.65
2022-09-20T07:09:22.392Z,7.90
2022-09-20T07:11:49.825Z,7.38
2022-09-20T07:14:17.229Z,8.10
2022-09-20T07:16:44.631Z,7.45
2022-09-20T07:19:13.649Z,7.50
2022-09-20T07:21:41.088Z,6.03
2022-09-20T07:24:08.617Z,6.22
2022-09-20T07:26:36.100Z,5.18
2022-09-20T07:29:03.497Z,5.10
2022-09-20T07:31:31.280Z,5.63
2022-09-20T07:33:58.701Z,5.60
2022-09-20T07:36:27.528Z,7.32
2022-09-20T07:38:54.925Z,5.68
2022-09-20T07:41:23.356Z,5.22
2022-09-20T07:43:52.170Z,5.70
2022-09-20T07:46:20.658Z,5.10
2022-09-20T07:48:48.059Z,5.85
2022-09-20T07:51:15.447Z,6.10
2022-09-20T07:53:44.171Z,5.72
2022-09-20T07:56:13.063Z,5.72
2022-09-20T07:58:40.870Z,5.97
2022-09-20T08:01:09.339Z,6.35
2022-09-20T08:03:37.178Z,6.10
2022-09-20T08:06:05.443Z,5.55
2022-09-20T08:08:33.433Z,6.15
2022-09-20T08:11:06.370Z,5.80
2022-09-20T08:16:24.333Z,6.15
2022-09-20T08:18:53.806Z,6.30
2022-09-20T08:21:21.201Z,5.35
2022-09-20T08:23:48.731Z,5.25
2022-09-20T08:26:18.932Z,7.38
2022-09-20T08:28:46.734Z,6.70
2022-09-20T08:31:14.931Z,6.32
2022-09-20T08:33:43.258Z,6.47
2022-09-20T08:36:12.933Z,6.60
2022-09-20T08:41:32.035Z,7.25
2022-09-20T08:44:01.398Z,6.45
2022-09-20T08:46:31.825Z,7.97
2022-09-20T08:48:59.825Z,7.18
2022-09-20T08:53:58.716Z,7.13
2022-09-20T08:56:27.961Z,7.13
2022-09-20T08:58:57.571Z,7.28
2022-09-20T09:01:26.887Z,7.80
2022-09-20T09:03:58.836Z,9.73
2022-09-20T09:06:26.986Z,6.05
2022-09-20T09:08:56.152Z,7.82
2022-09-20T09:11:23.577Z,6.97
2022-09-20T09:13:53.093Z,7.53
2022-09-20T09:16:28.621Z,6.45
2022-09-20T09:18:57.973Z,6.07
2022-09-20T09:21:26.217Z,5.15
2022-09-20T09:23:57.796Z,5.65
2022-09-20T09:26:26.217Z,5.53
2022-09-20T09:29:08.912Z,5.78
2022-09-20T09:31:39.510Z,5.78
2022-09-20T09:34:23.053Z,6.20
2022-09-20T09:36:50.440Z,5.68
2022-09-20T09:39:23.351Z,5.47
2022-09-20T09:41:50.984Z,4.85
2022-09-20T09:44:22.980Z,5.45
2022-09-20T09:46:53.484Z,4.25
2022-09-20T09:49:21.838Z,2.60
2022-09-20T09:52:02.790Z,3.55
2022-09-20T09:54:31.976Z,2.97
2022-09-20T09:57:05.757Z,2.85
2022-09-20T09:59:40.096Z,2.25
2022-09-20T10:02:20.139Z,2.20
2022-09-20T10:04:49.396Z,2.45
2022-09-20T10:07:21.872Z,1.52
2022-09-20T10:09:57.020Z,1.70
2022-09-20T10:12:43.948Z,2.45
2022-09-20T10:15:18.084Z,2.00
2022-09-20T10:17:51.426Z,1.63
2022-09-20T10:20:31.110Z,2.67
2022-09-20T10:23:34.346Z,2.33
2022-09-20T10:25:54.890Z,1.63
2022-09-20T10:28:29.380Z,2.10
2022-09-20T10:31:01.602Z,1.73
2022-09-20T10:33:34.977Z,1.88
2022-09-20T10:36:08.580Z,2.50
2022-09-20T10:38:38.958Z,1.92
2022-09-20T10:41:35.508Z,2.08
2022-09-20T10:44:08.817Z,2.03
2022-09-20T10:46:42.380Z,3.03
2022-09-20T10:49:23.601Z,1.88
2022-09-20T10:51:55.478Z,2.13
2022-09-20T10:54:33.025Z,1.90
2022-09-20T10:57:06.708Z,5.18
2022-09-20T10:59:42.116Z,4.60
2022-09-20T11:02:21.876Z,2.33
2022-09-20T11:04:56.856Z,1.33
2022-09-20T11:07:27.832Z,1.90
2022-09-20T11:09:58.595Z,1.70
2022-09-20T11:12:27.979Z,2.25
2022-09-20T11:14:56.670Z,1.58
2022-09-20T11:17:25.376Z,1.63
2022-09-20T11:19:56.406Z,2.05
2022-09-20T11:22:24.908Z,1.63
2022-09-20T11:24:54.976Z,1.27
2022-09-20T11:27:25.515Z,1.48
2022-09-20T11:29:54.369Z,2.00
2022-09-20T11:32:23.503Z,7.35
2022-09-20T11:34:55.389Z,1.45
2022-09-20T11:37:26.266Z,1.10
2022-09-20T11:39:54.783Z,1.35
2022-09-20T11:42:23.360Z,2.10
2022-09-20T11:44:51.458Z,1.40
2022-09-20T11:47:42.694Z,3.47
2022-09-20T11:50:32.962Z,1.38
2022-09-20T11:53:08.091Z,1.70
2022-09-20T11:55:39.246Z,1.88
2022-09-20T11:58:09.597Z,1.95
2022-09-20T12:00:38.622Z,1.40
2022-09-20T12:03:08.196Z,1.35
2022-09-20T12:05:37.985Z,1.73
2022-09-20T12:08:08.130Z,1.50
2022-09-20T12:10:37.298Z,1.05
2022-09-20T12:13:05.521Z,1.27
2022-09-20T12:15:34.849Z,1.30
2022-09-20T12:18:09.019Z,1.33
2022-09-20T12:20:55.533Z,1.67
2022-09-20T12:23:38.111Z,2.13
2022-09-20T12:26:09.021Z,1.83
2022-09-20T12:28:37.600Z,1.38
2022-09-20T12:31:25.925Z,1.35
2022-09-20T12:33:57.656Z,2.00
2022-09-20T12:36:25.116Z,1.60
2022-09-20T12:38:56.100Z,2.38
2022-09-20T12:41:28.552Z,2.30
2022-09-20T12:44:04.760Z,2.20
2022-09-20T12:46:41.370Z,1.45
2022-09-20T12:49:36.732Z,1.63
2022-09-20T12:52:22.068Z,1.30
2022-09-20T12:54:51.094Z,1.98
2022-09-20T12:57:28.260Z,1.85
2022-09-20T12:59:57.016Z,1.42
2022-09-20T13:02:43.863Z,0.88
2022-09-20T13:05:32.640Z,1.75
2022-09-20T13:08:02.991Z,2.28
2022-09-20T13:10:37.378Z,0.82
2022-09-20T13:13:13.346Z,1.40
2022-09-20T13:15:41.027Z,0.88
2022-09-20T13:18:12.616Z,2.25
2022-09-20T13:20:42.663Z,1.30
2022-09-20T13:23:17.620Z,0.90
2022-09-20T13:25:45.726Z,2.08
2022-09-20T13:28:21.293Z,1.23
2022-09-20T13:30:48.991Z,1.35
2022-09-20T13:33:17.698Z,1.05
2022-09-20T13:35:47.109Z,1.63
2022-09-20T13:38:20.254Z,1.58
2022-09-20T13:40:48.335Z,1.27
2022-09-20T13:43:24.953Z,1.50
2022-09-20T13:45:54.356Z,0.95
2022-09-20T13:48:24.853Z,1.10
2022-09-20T13:50:53.839Z,1.50
2022-09-20T13:53:40.207Z,1.52
2022-09-20T13:56:10.820Z,1.95
2022-09-20T13:58:39.575Z,2.30
2022-09-20T14:01:09.351Z,2.65
2022-09-20T14:03:37.232Z,0.98
2022-09-20T14:06:08.408Z,2.72
2022-09-20T14:08:38.139Z,2.53
2022-09-20T14:11:07.202Z,1.48
2022-09-20T14:13:37.766Z,1.05
2022-09-20T14:16:06.911Z,2.83
2022-09-20T14:18:35.114Z,23.50
2022-09-20T14:21:02.999Z,1.83
2022-09-20T14:23:31.506Z,1.45
2022-09-20T14:26:22.960Z,1.35
2022-09-20T14:28:50.372Z,1.42
2022-09-20T14:31:21.825Z,1.20
2022-09-20T14:33:54.956Z,1.50
2022-09-20T14:36:24.154Z,1.20
2022-09-20T14:38:52.667Z,1.27
2022-09-20T14:41:28.693Z,1.60
2022-09-20T14:43:57.768Z,2.15
2022-09-20T14:46:31.683Z,1.70
2022-09-20T14:49:14.179Z,1.75
2022-09-20T14:51:41.591Z,1.35
2022-09-20T14:54:19.404Z,1.55
2022-09-20T14:56:50.839Z,2.08
2022-09-20T14:59:22.715Z,1.10
2022-09-20T15:01:58.915Z,1.55
2022-09-20T15:04:27.668Z,1.10
2022-09-20T15:06:55.643Z,1.08
2022-09-20T15:09:23.538Z,1.42
2022-09-20T15:12:00.592Z,1.90
2022-09-20T15:14:28.054Z,2.22
2022-09-20T15:16:55.702Z,1.33
2022-09-20T15:19:24.431Z,1.45
2022-09-20T15:21:51.831Z,1.38
2022-09-20T15:24:19.277Z,1.48
2022-09-20T15:26:46.739Z,1.00
2022-09-20T15:29:15.452Z,1.48
2022-09-20T15:31:43.003Z,1.00
2022-09-20T15:34:12.495Z,1.10
2022-09-20T15:36:41.687Z,1.33
2022-09-20T15:39:09.605Z,0.93
2022-09-20T15:41:37.104Z,0.95
2022-09-20T15:44:04.507Z,1.08
2022-09-20T15:46:32.137Z,0.88
2022-09-20T15:49:00.800Z,1.45
2022-09-20T15:51:29.420Z,1.13
2022-09-20T15:53:59.984Z,1.23
2022-09-20T15:56:28.556Z,1.55
2022-09-20T15:58:58.890Z,7.13
2022-09-20T16:01:28.110Z,2.25
2022-09-20T16:03:56.020Z,1.83
2022-09-20T16:08:51.412Z,1.50
2022-09-20T16:11:22.809Z,1.67
2022-09-20T16:13:53.482Z,2.00
2022-09-20T16:16:21.108Z,1.73
2022-09-20T16:19:06.292Z,1.42
2022-09-20T16:21:33.794Z,1.73
2022-09-20T16:24:01.385Z,1.95
2022-09-20T16:26:31.246Z,1.55
2022-09-20T16:28:58.930Z,1.80
2022-09-20T16:31:30.186Z,1.70
2022-09-20T16:33:57.617Z,1.85
2022-09-20T16:36:27.474Z,1.77
2022-09-20T16:38:55.721Z,1.58
2022-09-20T16:41:25.691Z,1.50
2022-09-20T16:43:54.576Z,1.40
2022-09-20T16:46:22.808Z,0.98
2022-09-20T16:48:54.687Z,1.25
2022-09-20T16:51:25.824Z,1.13
2022-09-20T16:53:55.861Z,1.00
2022-09-20T16:56:24.191Z,1.33
2022-09-20T16:58:51.704Z,1.17
2022-09-20T17:01:20.872Z,1.15
2022-09-20T17:03:48.823Z,1.10
2022-09-20T17:08:44.865Z,0.88
2022-09-20T17:11:14.887Z,1.15
2022-09-20T17:13:43.076Z,1.40
2022-09-20T17:16:11.497Z,1.10
2022-09-20T17:18:41.839Z,1.55
2022-09-20T17:21:10.393Z,1.63
2022-09-20T17:23:37.784Z,2.20
2022-09-20T17:26:06.327Z,1.27
2022-09-20T17:28:37.284Z,1.35
2022-09-20T17:31:04.979Z,2.13
2022-09-20T17:33:33.534Z,1.13
2022-09-20T17:36:03.412Z,1.35
2022-09-20T17:38:33.440Z,1.40
2022-09-20T17:41:01.703Z,1.48
2022-09-20T17:43:30.998Z,3.90
2022-09-20T17:46:05.174Z,2.13
2022-09-20T17:48:34.201Z,1.20
2022-09-20T17:51:03.629Z,2.17
2022-09-20T17:53:32.091Z,2.15
2022-09-20T17:56:00.243Z,1.70
2022-09-20T17:58:28.466Z,2.08
2022-09-20T18:00:58.361Z,2.08
2022-09-20T18:03:25.977Z,1.70
2022-09-20T18:05:54.000Z,1.73
2022-09-20T18:10:56.632Z,2.08
2022-09-20T18:13:24.252Z,1.40
2022-09-20T18:15:51.865Z,1.80
2022-09-20T18:18:20.028Z,1.20
2022-09-20T18:20:47.486Z,1.75
2022-09-20T18:23:14.970Z,1.85
2022-09-20T18:26:11.518Z,1.52
2022-09-20T18:28:40.282Z,2.63
2022-09-20T18:31:10.562Z,1.95
2022-09-20T18:33:38.907Z,2.00
2022-09-20T18:36:06.649Z,1.58
2022-09-20T18:38:34.074Z,1.65
2022-09-20T18:41:02.783Z,2.38
2022-09-20T18:43:30.984Z,3.00
2022-09-20T18:46:00.144Z,2.60
2022-09-20T18:48:32.737Z,1.98
2022-09-20T18:51:00.553Z,2.38
2022-09-20T18:53:28.367Z,2.13
2022-09-20T18:55:56.232Z,2.05
2022-09-20T18:58:24.648Z,3.75
2022-09-20T19:01:00.439Z,2.30
2022-09-20T19:03:33.503Z,3.30
2022-09-20T19:06:06.264Z,3.05
2022-09-20T19:08:37.011Z,3.20
2022-09-20T19:11:08.802Z,3.85
2022-09-20T19:13:39.657Z,4.03
2022-09-20T19:16:12.618Z,4.00
2022-09-20T19:18:56.221Z,4.70
2022-09-20T19:21:28.435Z,5.35
2022-09-20T19:24:08.666Z,5.35
2022-09-20T19:26:37.963Z,6.35
2022-09-20T19:29:11.103Z,5.55
2022-09-20T19:31:38.835Z,4.97
2022-09-20T19:34:12.812Z,5.72
2022-09-20T19:36:44.342Z,7.50
2022-09-20T19:39:16.926Z,7.22
2022-09-20T19:41:49.370Z,6.70
2022-09-20T19:44:22.813Z,7.05
2022-09-20T19:46:58.416Z,8.43
2022-09-20T19:49:32.835Z,8.23
2022-09-20T19:52:01.051Z,7.15
2022-09-20T19:54:28.676Z,9.27
2022-09-20T19:56:58.616Z,13.07
2022-09-20T19:59:27.103Z,12.82
2022-09-20T20:01:56.326Z,18.92
2022-09-20T20:04:24.110Z,17.80
2022-09-20T20:06:58.177Z,15.80
2022-09-20T20:09:29.925Z,12.18
2022-09-20T20:12:00.828Z,12.13
2022-09-20T20:14:33.561Z,12.38
2022-09-20T20:17:03.794Z,13.88
2022-09-20T20:19:36.756Z,11.27
2022-09-20T20:22:10.566Z,11.30
2022-09-20T20:24:38.892Z,12.60
2022-09-20T20:27:06.302Z,11.98
2022-09-20T20:29:33.866Z,10.57
2022-09-20T20:32:01.318Z,10.90
2022-09-20T20:34:29.391Z,10.25
2022-09-20T20:37:00.864Z,10.15
2022-09-20T20:39:31.920Z,10.15
2022-09-20T20:42:02.273Z,9.23
2022-09-20T20:44:30.117Z,9.23
2022-09-20T20:46:57.579Z,8.90
2022-09-20T20:49:25.165Z,8.65
2022-09-20T20:51:52.639Z,13.38
2022-09-20T20:54:20.863Z,22.10
2022-09-20T20:56:49.744Z,31.88
2022-09-20T20:59:18.047Z,19.75
2022-09-20T21:01:45.825Z,18.83
2022-09-20T21:06:41.444Z,17.65
2022-09-20T21:09:09.505Z,17.27
2022-09-20T21:11:37.685Z,17.42
2022-09-20T21:14:07.911Z,16.35
2022-09-20T21:16:36.126Z,16.35
2022-09-20T21:19:04.375Z,14.57
2022-09-20T21:21:33.057Z,11.95
2022-09-20T21:24:01.202Z,10.27
2022-09-20T21:26:31.817Z,9.20
2022-09-20T21:29:00.434Z,8.98
2022-09-20T21:31:29.961Z,9.55
2022-09-20T21:33:57.425Z,10.80
2022-09-20T21:36:25.665Z,10.52
2022-09-20T21:38:53.688Z,10.48
2022-09-20T21:41:22.277Z,8.38
2022-09-20T21:43:52.114Z,9.02
2022-09-20T21:46:20.444Z,7.78
2022-09-20T21:48:50.370Z,6.60
2022-09-20T21:51:19.147Z,6.82
2022-09-20T21:53:47.080Z,7.20
2022-09-20T21:58:41.963Z,6.97
2022-09-20T22:01:11.150Z,7.85
2022-09-20T22:03:39.367Z,7.25
2022-09-20T22:06:09.763Z,7.13
2022-09-20T22:08:37.928Z,9.13
2022-09-20T22:11:06.019Z,6.50
2022-09-20T22:13:33.408Z,6.43
2022-09-20T22:16:05.909Z,6.40
2022-09-20T22:18:37.490Z,6.57
2022-09-20T22:21:10.272Z,9.05
2022-09-20T22:23:37.904Z,7.05
2022-09-20T22:26:06.078Z,6.82
2022-09-20T22:28:33.480Z,7.13
2022-09-20T22:31:07.747Z,6.97
2022-09-20T22:33:35.526Z,6.75
2022-09-20T22:36:03.199Z,7.55
2022-09-20T22:38:32.495Z,7.28
2022-09-20T22:41:00.476Z,7.95
2022-09-20T22:43:28.139Z,8.45
2022-09-20T22:45:55.566Z,9.15
2022-09-20T22:48:23.041Z,9.40
2022-09-20T22:50:50.419Z,9.10
2022-09-20T22:53:17.974Z,7.88
2022-09-20T22:55:46.728Z,7.78
2022-09-20T22:58:14.125Z,8.15
2022-09-20T23:00:41.566Z,8.05
2022-09-20T23:03:09.011Z,7.60
2022-09-20T23:05:39.624Z,8.00
2022-09-20T23:08:07.057Z,8.65
2022-09-20T23:10:34.448Z,7.72
2022-09-20T23:13:03.208Z,6.85
2022-09-20T23:15:30.615Z,7.05
2022-09-20T23:17:58.038Z,6.60
2022-09-20T23:20:25.673Z,7.20
2022-09-20T23:22:53.077Z,9.70
2022-09-20T23:25:20.525Z,7.15
2022-09-20T23:27:47.934Z,6.72
2022-09-20T23:30:16.759Z,7.55
2022-09-20T23:32:44.173Z,7.38
2022-09-20T23:35:11.581Z,7.30
2022-09-20T23:37:39.724Z,7.28
2022-09-20T23:40:07.686Z,7.40
2022-09-20T23:42:35.126Z,7.75
2022-09-20T23:45:02.535Z,7.13
2022-09-20T23:47:31.297Z,6.80
2022-09-20T23:49:58.684Z,7.22
2022-09-20T23:52:26.191Z,6.88
2022-09-20T23:54:53.639Z,7.65
2022-09-20T23:57:21.159Z,7.47
2022-09-20T23:59:49.302Z,8.52
